sensor_id;sensor_type;location;lat;lon;timestamp;pressure;altitude;pressure_sealevel;temperature;humidity
85473;BME280;75874;41.386;22.136;2024-02-26T00:02:18;95241.47;;;12.10;79.65
85473;BME280;75874;41.386;22.136;2024-02-26T00:04:44;95242.56;;;12.09;79.79
85473;BME280;75874;41.386;22.136;2024-02-26T00:07:10;95249.22;;;12.11;80.15
85473;BME280;75874;41.386;22.136;2024-02-26T00:09:35;95237.22;;;12.14;80.10
85473;BME280;75874;41.386;22.136;2024-02-26T00:12:02;95238.78;;;12.20;79.52
85473;BME280;75874;41.386;22.136;2024-02-26T00:14:30;95235.31;;;12.19;80.70
85473;BME280;75874;41.386;22.136;2024-02-26T00:16:55;95242.00;;;12.22;80.33
85473;BME280;75874;41.386;22.136;2024-02-26T00:19:21;95241.19;;;12.21;79.61
85473;BME280;75874;41.386;22.136;2024-02-26T00:21:46;95236.63;;;12.32;80.26
85473;BME280;75874;41.386;22.136;2024-02-26T00:24:12;95228.84;;;12.35;79.12
85473;BME280;75874;41.386;22.136;2024-02-26T00:26:38;95238.50;;;12.31;79.34
85473;BME280;75874;41.386;22.136;2024-02-26T00:29:04;95234.22;;;12.25;79.40
85473;BME280;75874;41.386;22.136;2024-02-26T00:31:29;95236.66;;;12.22;80.97
85473;BME280;75874;41.386;22.136;2024-02-26T00:33:55;95239.28;;;12.27;79.49
85473;BME280;75874;41.386;22.136;2024-02-26T00:36:21;95235.84;;;12.31;81.22
85473;BME280;75874;41.386;22.136;2024-02-26T00:38:47;95231.53;;;12.30;79.26
85473;BME280;75874;41.386;22.136;2024-02-26T00:41:17;95231.53;;;12.30;78.99
85473;BME280;75874;41.386;22.136;2024-02-26T00:43:43;95233.94;;;12.32;79.88
85473;BME280;75874;41.386;22.136;2024-02-26T00:46:09;95233.69;;;12.28;79.70
85473;BME280;75874;41.386;22.136;2024-02-26T00:48:35;95229.69;;;12.26;79.64
85473;BME280;75874;41.386;22.136;2024-02-26T00:51:01;95228.34;;;12.28;80.46
85473;BME280;75874;41.386;22.136;2024-02-26T00:53:26;95225.38;;;12.30;79.00
85473;BME280;75874;41.386;22.136;2024-02-26T00:55:54;95230.78;;;12.25;81.21
85473;BME280;75874;41.386;22.136;2024-02-26T00:58:19;95236.06;;;12.30;80.94
85473;BME280;75874;41.386;22.136;2024-02-26T01:00:45;95220.84;;;12.25;79.14
85473;BME280;75874;41.386;22.136;2024-02-26T01:03:10;95222.97;;;12.28;81.26
85473;BME280;75874;41.386;22.136;2024-02-26T01:05:36;95220.56;;;12.32;81.09
85473;BME280;75874;41.386;22.136;2024-02-26T01:08:04;95219.81;;;12.21;79.79
85473;BME280;75874;41.386;22.136;2024-02-26T01:10:29;95210.22;;;12.15;81.33
85473;BME280;75874;41.386;22.136;2024-02-26T01:12:55;95216.91;;;12.08;80.18
85473;BME280;75874;41.386;22.136;2024-02-26T01:15:21;95217.97;;;12.12;80.14
85473;BME280;75874;41.386;22.136;2024-02-26T01:17:50;95211.78;;;12.16;80.88
85473;BME280;75874;41.386;22.136;2024-02-26T01:20:16;95214.47;;;12.16;82.34
85473;BME280;75874;41.386;22.136;2024-02-26T01:22:43;95214.75;;;12.10;80.23
85473;BME280;75874;41.386;22.136;2024-02-26T01:25:09;95210.47;;;12.14;80.18
85473;BME280;75874;41.386;22.136;2024-02-26T01:27:37;95211.81;;;12.11;80.12
85473;BME280;75874;41.386;22.136;2024-02-26T01:30:03;95206.72;;;12.05;82.17
85473;BME280;75874;41.386;22.136;2024-02-26T01:32:30;95206.22;;;12.08;81.25
85473;BME280;75874;41.386;22.136;2024-02-26T01:34:56;95195.53;;;12.08;80.44
85473;BME280;75874;41.386;22.136;2024-02-26T01:37:22;95202.47;;;12.09;80.66
85473;BME280;75874;41.386;22.136;2024-02-26T01:39:48;95203.00;;;12.11;80.92
85473;BME280;75874;41.386;22.136;2024-02-26T01:42:14;95197.41;;;12.07;81.48
85473;BME280;75874;41.386;22.136;2024-02-26T01:44:39;95202.97;;;12.16;80.62
85473;BME280;75874;41.386;22.136;2024-02-26T01:47:10;95198.16;;;12.13;81.00
85473;BME280;75874;41.386;22.136;2024-02-26T01:49:37;95190.97;;;12.08;80.64
85473;BME280;75874;41.386;22.136;2024-02-26T01:52:05;95189.31;;;12.17;79.64
85473;BME280;75874;41.386;22.136;2024-02-26T01:54:34;95186.69;;;12.12;81.66
85473;BME280;75874;41.386;22.136;2024-02-26T01:57:02;95182.69;;;12.05;79.86
85473;BME280;75874;41.386;22.136;2024-02-26T01:59:28;95189.88;;;12.14;80.57
85473;BME280;75874;41.386;22.136;2024-02-26T02:01:55;95169.59;;;12.08;81.53
85473;BME280;75874;41.386;22.136;2024-02-26T02:04:23;95179.97;;;12.25;79.10
85473;BME280;75874;41.386;22.136;2024-02-26T02:06:50;95161.53;;;12.23;78.51
85473;BME280;75874;41.386;22.136;2024-02-26T02:09:18;95161.28;;;12.20;79.20
85473;BME280;75874;41.386;22.136;2024-02-26T02:11:44;95157.50;;;12.21;79.97
85473;BME280;75874;41.386;22.136;2024-02-26T02:14:10;95158.31;;;12.31;78.82
85473;BME280;75874;41.386;22.136;2024-02-26T02:16:35;95155.34;;;12.33;78.38
85473;BME280;75874;41.386;22.136;2024-02-26T02:19:01;95159.34;;;12.30;78.10
85473;BME280;75874;41.386;22.136;2024-02-26T02:21:27;95147.09;;;12.24;78.54
85473;BME280;75874;41.386;22.136;2024-02-26T02:23:53;95152.44;;;12.24;79.45
85473;BME280;75874;41.386;22.136;2024-02-26T02:26:18;95150.31;;;12.21;79.00
85473;BME280;75874;41.386;22.136;2024-02-26T02:28:45;95136.19;;;12.11;79.17
85473;BME280;75874;41.386;22.136;2024-02-26T02:31:12;95143.66;;;12.19;77.25
85473;BME280;75874;41.386;22.136;2024-02-26T02:33:38;95142.31;;;12.16;78.33
85473;BME280;75874;41.386;22.136;2024-02-26T02:36:04;95128.94;;;12.11;78.31
85473;BME280;75874;41.386;22.136;2024-02-26T02:38:34;95142.59;;;12.10;78.01
85473;BME280;75874;41.386;22.136;2024-02-26T02:41:00;95136.72;;;12.08;77.03
85473;BME280;75874;41.386;22.136;2024-02-26T02:43:25;95134.06;;;12.08;77.93
85473;BME280;75874;41.386;22.136;2024-02-26T02:45:51;95137.25;;;12.05;76.65
85473;BME280;75874;41.386;22.136;2024-02-26T02:48:17;95131.13;;;11.99;76.85
85473;BME280;75874;41.386;22.136;2024-02-26T02:50:42;95136.75;;;11.98;77.31
85473;BME280;75874;41.386;22.136;2024-02-26T02:53:08;95136.75;;;11.98;78.13
85473;BME280;75874;41.386;22.136;2024-02-26T02:55:34;95141.03;;;11.99;78.67
85473;BME280;75874;41.386;22.136;2024-02-26T02:57:59;95143.47;;;11.95;78.86
85473;BME280;75874;41.386;22.136;2024-02-26T03:00:25;95156.53;;;11.97;79.59
85473;BME280;75874;41.386;22.136;2024-02-26T03:02:50;95146.13;;;11.95;80.02
85473;BME280;75874;41.386;22.136;2024-02-26T03:05:16;95146.41;;;11.89;79.95
85473;BME280;75874;41.386;22.136;2024-02-26T03:07:42;95143.19;;;11.87;78.77
85473;BME280;75874;41.386;22.136;2024-02-26T03:10:08;95149.84;;;11.89;80.58
85473;BME280;75874;41.386;22.136;2024-02-26T03:12:34;95142.38;;;11.86;79.83
85473;BME280;75874;41.386;22.136;2024-02-26T03:15:00;95143.75;;;11.79;79.60
85473;BME280;75874;41.386;22.136;2024-02-26T03:17:29;95136.81;;;11.73;80.45
85473;BME280;75874;41.386;22.136;2024-02-26T03:19:55;95144.28;;;11.71;79.93
85473;BME280;75874;41.386;22.136;2024-02-26T03:22:21;95136.00;;;11.67;80.36
85473;BME280;75874;41.386;22.136;2024-02-26T03:24:47;95139.22;;;11.69;81.32
85473;BME280;75874;41.386;22.136;2024-02-26T03:27:13;95129.88;;;11.72;79.56
85473;BME280;75874;41.386;22.136;2024-02-26T03:29:40;95130.66;;;11.72;81.07
85473;BME280;75874;41.386;22.136;2024-02-26T03:32:06;95135.75;;;11.74;81.56
85473;BME280;75874;41.386;22.136;2024-02-26T03:34:32;95130.16;;;11.65;79.65
85473;BME280;75874;41.386;22.136;2024-02-26T03:37:01;95122.94;;;11.66;79.15
85473;BME280;75874;41.386;22.136;2024-02-26T03:39:26;95105.03;;;11.61;79.64
85473;BME280;75874;41.386;22.136;2024-02-26T03:41:52;95126.13;;;11.78;78.16
85473;BME280;75874;41.386;22.136;2024-02-26T03:44:18;95123.44;;;11.83;80.23
85473;BME280;75874;41.386;22.136;2024-02-26T03:46:43;95119.97;;;11.87;77.31
85473;BME280;75874;41.386;22.136;2024-02-26T03:49:09;95121.53;;;11.93;77.36
85473;BME280;75874;41.386;22.136;2024-02-26T03:51:35;95122.88;;;11.91;78.73
85473;BME280;75874;41.386;22.136;2024-02-26T03:54:00;95121.84;;;11.77;79.42
85473;BME280;75874;41.386;22.136;2024-02-26T03:56:27;95130.13;;;11.70;80.74
85473;BME280;75874;41.386;22.136;2024-02-26T03:58:53;95129.88;;;11.52;81.95
85473;BME280;75874;41.386;22.136;2024-02-26T04:01:19;95126.41;;;11.46;82.74
85473;BME280;75874;41.386;22.136;2024-02-26T04:03:44;95136.56;;;11.34;81.68
85473;BME280;75874;41.386;22.136;2024-02-26T04:06:11;95140.31;;;11.33;82.00
85473;BME280;75874;41.386;22.136;2024-02-26T04:08:40;95143.78;;;11.34;83.41
85473;BME280;75874;41.386;22.136;2024-02-26T04:11:06;95147.78;;;11.36;83.65
85473;BME280;75874;41.386;22.136;2024-02-26T04:13:33;95129.88;;;11.22;83.53
85473;BME280;75874;41.386;22.136;2024-02-26T04:16:00;95145.91;;;11.37;83.12
85473;BME280;75874;41.386;22.136;2024-02-26T04:18:28;95152.03;;;11.42;84.06
85473;BME280;75874;41.386;22.136;2024-02-26T04:20:54;95139.47;;;11.58;82.76
85473;BME280;75874;41.386;22.136;2024-02-26T04:23:20;95152.56;;;11.69;81.32
85473;BME280;75874;41.386;22.136;2024-02-26T04:25:45;95150.97;;;11.73;82.31
85473;BME280;75874;41.386;22.136;2024-02-26T04:28:12;95152.56;;;11.74;82.50
85473;BME280;75874;41.386;22.136;2024-02-26T04:30:37;95151.75;;;11.74;81.75
85473;BME280;75874;41.386;22.136;2024-02-26T04:33:04;95152.31;;;11.71;80.44
85473;BME280;75874;41.386;22.136;2024-02-26T04:35:29;95153.34;;;11.80;80.08
85473;BME280;75874;41.386;22.136;2024-02-26T04:37:55;95148.31;;;11.73;80.28
85473;BME280;75874;41.386;22.136;2024-02-26T04:40:21;95150.97;;;11.73;82.12
85473;BME280;75874;41.386;22.136;2024-02-26T04:42:46;95137.84;;;11.87;80.27
85473;BME280;75874;41.386;22.136;2024-02-26T04:45:12;95149.59;;;11.91;80.26
85473;BME280;75874;41.386;22.136;2024-02-26T04:47:38;95144.22;;;12.01;80.27
85473;BME280;75874;41.386;22.136;2024-02-26T04:50:04;95147.72;;;11.81;80.42
85473;BME280;75874;41.386;22.136;2024-02-26T04:52:29;95147.50;;;11.68;82.35
85473;BME280;75874;41.386;22.136;2024-02-26T04:54:55;95144.31;;;11.61;82.10
85473;BME280;75874;41.386;22.136;2024-02-26T04:57:22;95153.91;;;11.57;81.25
85473;BME280;75874;41.386;22.136;2024-02-26T04:59:47;95142.16;;;11.53;82.57
85473;BME280;75874;41.386;22.136;2024-02-26T05:02:13;95142.94;;;11.53;82.62
85473;BME280;75874;41.386;22.136;2024-02-26T05:04:39;95138.41;;;11.54;82.23
85473;BME280;75874;41.386;22.136;2024-02-26T05:07:05;95139.75;;;11.66;81.82
85473;BME280;75874;41.386;22.136;2024-02-26T05:09:32;95142.97;;;11.63;83.29
85473;BME280;75874;41.386;22.136;2024-02-26T05:11:58;95143.50;;;11.65;83.16
85473;BME280;75874;41.386;22.136;2024-02-26T05:14:23;95144.31;;;11.61;81.58
85473;BME280;75874;41.386;22.136;2024-02-26T05:16:49;95151.50;;;11.60;82.62
85473;BME280;75874;41.386;22.136;2024-02-26T05:19:15;95150.16;;;11.58;80.81
85473;BME280;75874;41.386;22.136;2024-02-26T05:21:40;95138.41;;;11.59;82.20
85473;BME280;75874;41.386;22.136;2024-02-26T05:24:08;95153.91;;;11.62;80.82
85473;BME280;75874;41.386;22.136;2024-02-26T05:26:33;95148.56;;;11.57;82.01
85473;BME280;75874;41.386;22.136;2024-02-26T05:28:59;95152.59;;;11.59;82.82
85473;BME280;75874;41.386;22.136;2024-02-26T05:31:26;95156.34;;;11.63;81.07
85473;BME280;75874;41.386;22.136;2024-02-26T05:33:52;95150.97;;;11.58;81.95
85473;BME280;75874;41.386;22.136;2024-02-26T05:36:21;95159.81;;;11.64;81.50
85473;BME280;75874;41.386;22.136;2024-02-26T05:38:51;95163.81;;;11.71;81.05
85473;BME280;75874;41.386;22.136;2024-02-26T05:41:17;95167.53;;;11.80;80.30
85473;BME280;75874;41.386;22.136;2024-02-26T05:43:54;95166.69;;;11.85;79.99
85473;BME280;75874;41.386;22.136;2024-02-26T05:46:20;95167.50;;;11.85;81.89
85473;BME280;75874;41.386;22.136;2024-02-26T05:48:48;95174.22;;;11.78;81.69
85473;BME280;75874;41.386;22.136;2024-02-26T05:51:14;95168.06;;;11.87;79.67
85473;BME280;75874;41.386;22.136;2024-02-26T05:53:40;95167.22;;;11.97;79.13
85473;BME280;75874;41.386;22.136;2024-02-26T05:56:06;95181.34;;;12.07;79.15
85473;BME280;75874;41.386;22.136;2024-02-26T05:58:32;95189.59;;;12.16;79.10
85473;BME280;75874;41.386;22.136;2024-02-26T06:00:58;95189.09;;;12.14;79.97
85473;BME280;75874;41.386;22.136;2024-02-26T06:03:26;95191.22;;;12.17;79.71
85473;BME280;75874;41.386;22.136;2024-02-26T06:05:51;95193.34;;;12.20;78.86
85473;BME280;75874;41.386;22.136;2024-02-26T06:08:17;95201.38;;;12.25;78.62
85473;BME280;75874;41.386;22.136;2024-02-26T06:10:42;95204.25;;;12.38;77.10
85473;BME280;75874;41.386;22.136;2024-02-26T06:13:08;95205.81;;;12.44;78.89
85473;BME280;75874;41.386;22.136;2024-02-26T06:15:34;95207.94;;;12.47;79.18
85473;BME280;75874;41.386;22.136;2024-02-26T06:17:59;95214.38;;;12.52;77.78
85473;BME280;75874;41.386;22.136;2024-02-26T06:20:25;95215.97;;;12.52;80.04
85473;BME280;75874;41.386;22.136;2024-02-26T06:22:51;95211.16;;;12.55;78.05
85473;BME280;75874;41.386;22.136;2024-02-26T06:25:16;95219.13;;;12.65;80.01
85473;BME280;75874;41.386;22.136;2024-02-26T06:27:42;95211.06;;;12.70;79.35
85473;BME280;75874;41.386;22.136;2024-02-26T06:30:08;95217.50;;;12.74;78.39
85473;BME280;75874;41.386;22.136;2024-02-26T06:32:39;95220.16;;;12.74;78.75
85473;BME280;75874;41.386;22.136;2024-02-26T06:35:05;95220.44;;;12.72;77.78
85473;BME280;75874;41.386;22.136;2024-02-26T06:37:33;95228.47;;;12.72;77.81
85473;BME280;75874;41.386;22.136;2024-02-26T06:40:00;95219.63;;;12.77;76.73
85473;BME280;75874;41.386;22.136;2024-02-26T06:42:26;95218.28;;;12.74;77.42
85473;BME280;75874;41.386;22.136;2024-02-26T06:44:51;95216.13;;;12.76;77.00
85473;BME280;75874;41.386;22.136;2024-02-26T06:47:18;95224.06;;;12.96;77.17
85473;BME280;75874;41.386;22.136;2024-02-26T06:49:45;95229.41;;;13.06;76.86
85473;BME280;75874;41.386;22.136;2024-02-26T06:52:10;95226.66;;;13.16;77.58
85473;BME280;75874;41.386;22.136;2024-02-26T06:54:36;95230.34;;;13.25;76.37
85473;BME280;75874;41.386;22.136;2024-02-26T06:57:02;95223.31;;;13.34;77.08
85473;BME280;75874;41.386;22.136;2024-02-26T06:59:27;95224.88;;;13.40;76.28
85473;BME280;75874;41.386;22.136;2024-02-26T07:01:53;95226.44;;;13.46;77.18
85473;BME280;75874;41.386;22.136;2024-02-26T07:04:20;95220.50;;;13.54;76.14
85473;BME280;75874;41.386;22.136;2024-02-26T07:06:46;95227.47;;;13.55;77.43
85473;BME280;75874;41.386;22.136;2024-02-26T07:09:13;95228.75;;;13.63;77.86
85473;BME280;75874;41.386;22.136;2024-02-26T07:11:39;95226.03;;;13.68;76.62
85473;BME280;75874;41.386;22.136;2024-02-26T07:14:09;95216.44;;;13.62;78.22
85473;BME280;75874;41.386;22.136;2024-02-26T07:16:35;95224.28;;;13.87;77.30
85473;BME280;75874;41.386;22.136;2024-02-26T07:19:01;95234.84;;;14.02;76.85
85473;BME280;75874;41.386;22.136;2024-02-26T07:21:26;95241.72;;;14.13;75.48
85473;BME280;75874;41.386;22.136;2024-02-26T07:23:52;95231.66;;;14.29;76.03
85473;BME280;75874;41.386;22.136;2024-02-26T07:26:18;95232.91;;;14.36;75.19
85473;BME280;75874;41.386;22.136;2024-02-26T07:28:45;95237.56;;;14.54;74.63
85473;BME280;75874;41.386;22.136;2024-02-26T07:31:10;95241.22;;;14.63;72.80
85473;BME280;75874;41.386;22.136;2024-02-26T07:33:36;95228.97;;;14.76;73.18
85473;BME280;75874;41.386;22.136;2024-02-26T07:36:02;95240.69;;;14.85;71.75
85473;BME280;75874;41.386;22.136;2024-02-26T07:38:28;95228.09;;;15.04;70.02
85473;BME280;75874;41.386;22.136;2024-02-26T07:40:53;95237.38;;;15.11;72.12
85473;BME280;75874;41.386;22.136;2024-02-26T07:43:19;95231.81;;;15.26;71.73
85473;BME280;75874;41.386;22.136;2024-02-26T07:45:45;95226.66;;;15.30;71.56
85473;BME280;75874;41.386;22.136;2024-02-26T07:48:10;95233.84;;;15.34;71.13
85473;BME280;75874;41.386;22.136;2024-02-26T07:50:36;95231.22;;;15.29;70.65
85473;BME280;75874;41.386;22.136;2024-02-26T07:53:02;95233.53;;;15.41;71.01
85473;BME280;75874;41.386;22.136;2024-02-26T07:55:28;95233.78;;;15.39;70.56
85473;BME280;75874;41.386;22.136;2024-02-26T07:57:54;95230.44;;;15.29;71.24
85473;BME280;75874;41.386;22.136;2024-02-26T08:00:20;95233.84;;;15.34;71.36
85473;BME280;75874;41.386;22.136;2024-02-26T08:02:45;95237.28;;;15.40;71.46
85473;BME280;75874;41.386;22.136;2024-02-26T08:05:12;95224.81;;;15.25;72.52
85473;BME280;75874;41.386;22.136;2024-02-26T08:07:38;95233.75;;;15.21;72.86
85473;BME280;75874;41.386;22.136;2024-02-26T08:10:04;95236.38;;;15.26;72.35
85473;BME280;75874;41.386;22.136;2024-02-26T08:12:29;95235.56;;;15.25;71.48
85473;BME280;75874;41.386;22.136;2024-02-26T08:14:55;95237.38;;;15.11;72.02
85473;BME280;75874;41.386;22.136;2024-02-26T08:17:21;95239.56;;;15.09;69.79
85473;BME280;75874;41.386;22.136;2024-02-26T08:19:47;95241.00;;;15.02;71.90
85473;BME280;75874;41.386;22.136;2024-02-26T08:22:12;95244.13;;;15.09;72.05
85473;BME280;75874;41.386;22.136;2024-02-26T08:24:42;95248.03;;;14.98;71.79
85473;BME280;75874;41.386;22.136;2024-02-26T08:27:08;95239.13;;;15.02;73.11
85473;BME280;75874;41.386;22.136;2024-02-26T08:29:34;95237.84;;;15.18;73.58
85473;BME280;75874;41.386;22.136;2024-02-26T08:31:59;95243.97;;;15.42;72.40
85473;BME280;75874;41.386;22.136;2024-02-26T08:34:25;95232.25;;;15.52;72.93
85473;BME280;75874;41.386;22.136;2024-02-26T08:36:51;95242.72;;;15.72;73.03
85473;BME280;75874;41.386;22.136;2024-02-26T08:39:17;95249.50;;;16.02;72.46
85473;BME280;75874;41.386;22.136;2024-02-26T08:41:44;95243.06;;;16.16;70.95
85473;BME280;75874;41.386;22.136;2024-02-26T08:44:10;95250.56;;;16.33;70.05
85473;BME280;75874;41.386;22.136;2024-02-26T08:49:57;95253.53;;;16.63;69.53
85473;BME280;75874;41.386;22.136;2024-02-26T08:52:23;95248.34;;;16.67;69.87
85473;BME280;75874;41.386;22.136;2024-02-26T08:54:49;95243.25;;;16.92;68.93
85473;BME280;75874;41.386;22.136;2024-02-26T08:57:15;95248.03;;;17.23;70.13
85473;BME280;75874;41.386;22.136;2024-02-26T08:59:40;95240.63;;;17.28;70.12
85473;BME280;75874;41.386;22.136;2024-02-26T09:02:07;95246.09;;;17.37;65.46
85473;BME280;75874;41.386;22.136;2024-02-26T09:04:35;95248.69;;;17.42;66.81
85473;BME280;75874;41.386;22.136;2024-02-26T09:07:10;95245.00;;;17.51;67.92
85473;BME280;75874;41.386;22.136;2024-02-26T09:09:36;95239.09;;;17.49;64.86
85473;BME280;75874;41.386;22.136;2024-02-26T09:12:02;95236.59;;;17.39;66.57
85473;BME280;75874;41.386;22.136;2024-02-26T09:14:27;95232.00;;;17.40;66.39
85473;BME280;75874;41.386;22.136;2024-02-26T09:16:53;95228.03;;;17.24;64.99
85473;BME280;75874;41.386;22.136;2024-02-26T09:19:19;95220.66;;;17.29;65.42
85473;BME280;75874;41.386;22.136;2024-02-26T09:21:45;95230.72;;;17.37;64.91
85473;BME280;75874;41.386;22.136;2024-02-26T09:24:11;95229.94;;;17.37;63.29
85473;BME280;75874;41.386;22.136;2024-02-26T09:26:37;95227.53;;;17.35;64.98
85473;BME280;75874;41.386;22.136;2024-02-26T09:29:03;95231.13;;;17.31;64.41
85473;BME280;75874;41.386;22.136;2024-02-26T09:31:32;95233.59;;;17.41;62.36
85473;BME280;75874;41.386;22.136;2024-02-26T09:33:59;95235.03;;;17.74;63.20
85473;BME280;75874;41.386;22.136;2024-02-26T09:36:25;95228.78;;;18.09;61.86
85473;BME280;75874;41.386;22.136;2024-02-26T09:38:50;95231.06;;;18.46;59.84
85473;BME280;75874;41.386;22.136;2024-02-26T09:41:32;95224.66;;;18.64;62.94
85473;BME280;75874;41.386;22.136;2024-02-26T09:43:58;95234.22;;;18.70;60.64
85473;BME280;75874;41.386;22.136;2024-02-26T09:46:27;95223.34;;;18.92;58.65
85473;BME280;75874;41.386;22.136;2024-02-26T09:48:54;95225.28;;;19.00;61.00
85473;BME280;75874;41.386;22.136;2024-02-26T09:51:26;95232.78;;;19.12;58.64
85473;BME280;75874;41.386;22.136;2024-02-26T09:53:52;95222.69;;;19.51;57.98
85473;BME280;75874;41.386;22.136;2024-02-26T09:56:19;95219.19;;;19.76;57.12
85473;BME280;75874;41.386;22.136;2024-02-26T09:58:45;95221.13;;;19.76;55.87
85473;BME280;75874;41.386;22.136;2024-02-26T10:01:18;95218.41;;;19.67;57.45
85473;BME280;75874;41.386;22.136;2024-02-26T10:03:44;95202.97;;;19.68;56.66
85473;BME280;75874;41.386;22.136;2024-02-26T10:06:13;95207.31;;;20.49;55.60
85473;BME280;75874;41.386;22.136;2024-02-26T10:08:39;95203.72;;;22.35;49.32
85473;BME280;75874;41.386;22.136;2024-02-26T10:11:06;95202.56;;;23.93;43.62
85473;BME280;75874;41.386;22.136;2024-02-26T10:13:35;95196.41;;;25.60;38.85
85473;BME280;75874;41.386;22.136;2024-02-26T10:16:02;95190.81;;;27.35;34.59
85473;BME280;75874;41.386;22.136;2024-02-26T10:18:49;95188.41;;;29.22;32.24
85473;BME280;75874;41.386;22.136;2024-02-26T10:21:20;95183.00;;;30.97;29.88
85473;BME280;75874;41.386;22.136;2024-02-26T10:23:46;95177.47;;;30.86;30.84
85473;BME280;75874;41.386;22.136;2024-02-26T10:26:16;95182.97;;;31.85;26.71
85473;BME280;75874;41.386;22.136;2024-02-26T10:28:45;95187.91;;;33.69;25.73
85473;BME280;75874;41.386;22.136;2024-02-26T10:31:13;95177.00;;;33.89;24.73
85473;BME280;75874;41.386;22.136;2024-02-26T10:33:41;95187.22;;;35.23;24.35
85473;BME280;75874;41.386;22.136;2024-02-26T10:36:08;95192.53;;;36.68;22.51
85473;BME280;75874;41.386;22.136;2024-02-26T10:38:35;95189.81;;;36.26;23.37
85473;BME280;75874;41.386;22.136;2024-02-26T10:41:02;95181.88;;;36.83;22.52
85473;BME280;75874;41.386;22.136;2024-02-26T10:43:29;95176.88;;;34.70;22.89
85473;BME280;75874;41.386;22.136;2024-02-26T10:45:55;95180.38;;;36.00;22.69
85473;BME280;75874;41.386;22.136;2024-02-26T10:52:02;95169.31;;;33.22;24.33
85473;BME280;75874;41.386;22.136;2024-02-26T10:54:29;95160.16;;;32.70;22.68
85473;BME280;75874;41.386;22.136;2024-02-26T10:56:59;95170.13;;;34.71;22.67
85473;BME280;75874;41.386;22.136;2024-02-26T10:59:52;95167.75;;;35.49;21.94
85473;BME280;75874;41.386;22.136;2024-02-26T11:02:20;95164.75;;;34.23;21.96
85473;BME280;75874;41.386;22.136;2024-02-26T11:04:46;95168.38;;;34.54;21.25
85473;BME280;75874;41.386;22.136;2024-02-26T11:07:12;95152.31;;;34.42;20.45
85473;BME280;75874;41.386;22.136;2024-02-26T11:09:39;95158.94;;;31.78;23.12
85473;BME280;75874;41.386;22.136;2024-02-26T11:12:13;95150.72;;;34.37;21.35
85473;BME280;75874;41.386;22.136;2024-02-26T11:14:44;95143.63;;;33.18;21.77
85473;BME280;75874;41.386;22.136;2024-02-26T11:17:12;95145.13;;;31.89;23.71
85473;BME280;75874;41.386;22.136;2024-02-26T11:19:38;95151.75;;;33.46;21.75
85473;BME280;75874;41.386;22.136;2024-02-26T11:22:07;95149.56;;;33.64;20.60
85473;BME280;75874;41.386;22.136;2024-02-26T11:24:32;95149.66;;;34.28;21.18
85473;BME280;75874;41.386;22.136;2024-02-26T11:27:01;95152.84;;;34.26;21.44
85473;BME280;75874;41.386;22.136;2024-02-26T11:29:38;95154.75;;;34.67;20.49
85473;BME280;75874;41.386;22.136;2024-02-26T11:32:06;95145.53;;;31.70;23.71
85473;BME280;75874;41.386;22.136;2024-02-26T11:34:32;95141.34;;;29.95;23.98
85473;BME280;75874;41.386;22.136;2024-02-26T11:37:09;95143.94;;;30.63;23.52
85473;BME280;75874;41.386;22.136;2024-02-26T11:39:35;95127.28;;;28.15;25.36
85473;BME280;75874;41.386;22.136;2024-02-26T11:42:14;95124.91;;;25.23;28.52
85473;BME280;75874;41.386;22.136;2024-02-26T11:44:40;95130.22;;;23.16;32.65
85473;BME280;75874;41.386;22.136;2024-02-26T11:47:19;95123.31;;;22.46;33.86
85473;BME280;75874;41.386;22.136;2024-02-26T11:49:45;95123.00;;;21.09;36.80
85473;BME280;75874;41.386;22.136;2024-02-26T11:52:13;95122.00;;;20.09;38.99
85473;BME280;75874;41.386;22.136;2024-02-26T11:54:50;95127.19;;;19.59;39.74
85473;BME280;75874;41.386;22.136;2024-02-26T11:57:29;95131.03;;;19.33;39.60
85473;BME280;75874;41.386;22.136;2024-02-26T11:59:57;95129.88;;;19.17;41.52
85473;BME280;75874;41.386;22.136;2024-02-26T12:05:20;95126.47;;;20.05;40.17
85473;BME280;75874;41.386;22.136;2024-02-26T12:07:52;95133.09;;;20.33;39.59
85473;BME280;75874;41.386;22.136;2024-02-26T12:10:24;95127.22;;;20.89;37.12
85473;BME280;75874;41.386;22.136;2024-02-26T12:13:13;95131.16;;;21.50;35.42
85473;BME280;75874;41.386;22.136;2024-02-26T12:15:45;95125.53;;;21.76;34.64
85473;BME280;75874;41.386;22.136;2024-02-26T12:18:18;95110.81;;;21.15;35.43
85473;BME280;75874;41.386;22.136;2024-02-26T12:20:44;95109.91;;;21.11;36.20
85473;BME280;75874;41.386;22.136;2024-02-26T12:23:14;95116.19;;;20.94;36.43
85473;BME280;75874;41.386;22.136;2024-02-26T12:25:43;95121.41;;;20.50;37.08
85473;BME280;75874;41.386;22.136;2024-02-26T12:28:09;95113.47;;;20.36;37.94
85473;BME280;75874;41.386;22.136;2024-02-26T12:30:35;95118.03;;;20.15;37.96
85473;BME280;75874;41.386;22.136;2024-02-26T12:33:01;95110.69;;;20.07;37.60
85473;BME280;75874;41.386;22.136;2024-02-26T12:35:28;95118.59;;;19.57;38.92
85473;BME280;75874;41.386;22.136;2024-02-26T12:37:58;95120.34;;;19.53;39.59
85473;BME280;75874;41.386;22.136;2024-02-26T12:40:24;95113.47;;;19.05;37.30
85473;BME280;75874;41.386;22.136;2024-02-26T12:42:49;95117.59;;;18.77;40.65
85473;BME280;75874;41.386;22.136;2024-02-26T12:45:15;95123.25;;;18.58;41.20
85473;BME280;75874;41.386;22.136;2024-02-26T12:47:43;95126.22;;;18.09;42.32
85473;BME280;75874;41.386;22.136;2024-02-26T12:50:10;95130.84;;;17.86;42.65
85473;BME280;75874;41.386;22.136;2024-02-26T12:52:43;95119.44;;;17.89;40.41
85473;BME280;75874;41.386;22.136;2024-02-26T12:55:13;95119.34;;;17.72;42.61
85473;BME280;75874;41.386;22.136;2024-02-26T12:57:41;95130.63;;;17.74;43.07
85473;BME280;75874;41.386;22.136;2024-02-26T13:00:12;95123.50;;;17.78;42.24